Time;durP1;ratioP1;P1;durP2;ratioP2;P2;SDS_P1;SDS_P2;PMS_P1;PMS_P2;Temp;Humidity;BMP_temperature;BMP_pressure;BME280_temperature;BME280_humidity;BME280_pressure;Samples;Min_cycle;Max_cycle;Signal;HPM_P1;HPM_P2
2022/02/08 00:00:12;;;;;;;;;;;2.60;70.70;;;0.90;75.37;97321.56;4951420;28;19936;-69
2022/02/08 00:02:43;;;;;;;;;;;2.60;70.80;;;0.89;74.95;97322.47;4936107;28;19927;-69
2022/02/08 00:05:11;;;;;;;;;;;2.60;70.80;;;0.88;75.99;97327.78;4951801;28;20013;-69
2022/02/08 00:07:37;;;;;;;;;;;2.60;70.80;;;0.85;75.13;97327.97;4952581;28;19918;-69
2022/02/08 00:10:03;;;;;;;;;;;2.60;70.50;;;0.82;76.01;97323.00;4949359;28;20001;-69
2022/02/08 00:12:29;;;;;;;;;;;2.50;71.10;;;0.80;76.16;97330.03;4951237;28;19927;-69
2022/02/08 00:14:55;;;;;;;;;;;2.50;71.10;;;0.80;75.78;97332.63;4936105;29;19918;-69
2022/02/08 00:17:20;;;;;;;;;;;2.50;71.00;;;0.80;75.86;97332.63;4952736;28;19929;-66
2022/02/08 00:19:46;;;;;;;;;;;2.50;71.00;;;0.75;76.07;97335.50;4954736;28;19922;-69
2022/02/08 00:22:12;;;;;;;;;;;2.40;71.40;;;0.71;75.92;97330.63;4951512;28;19922;-69
2022/02/08 00:24:37;;;;;;;;;;;2.40;71.40;;;0.65;75.90;97337.00;4953591;28;19919;-69
2022/02/08 00:27:04;;;;;;;;;;;2.30;71.60;;;0.64;76.40;97334.53;4933104;29;20397;-69
2022/02/08 00:29:30;;;;;;;;;;;2.30;71.60;;;0.58;76.34;97336.56;4950719;28;19961;-69
2022/02/08 00:31:55;;;;;;;;;;;2.30;71.70;;;0.55;75.71;97341.94;4935932;28;19973;-69
2022/02/08 00:34:21;;;;;;;;;;;2.20;71.80;;;0.53;76.39;97338.63;4952696;28;20396;-69
2022/02/08 00:36:47;;;;;;;;;;;2.20;71.70;;;0.50;75.81;97344.00;4953251;28;19925;-70
2022/02/08 00:39:12;;;;;;;;;;;2.20;71.70;;;0.48;75.85;97340.69;4951971;28;19976;-69
2022/02/08 00:41:39;;;;;;;;;;;2.20;71.80;;;0.42;76.75;97335.88;4952026;28;19925;-69
2022/02/08 00:44:10;;;;;;;;;;;2.10;72.20;;;0.37;76.68;97335.34;4949691;28;19918;-69
2022/02/08 00:49:13;;;;;;;;;;;2.10;72.10;;;0.36;76.86;97338.84;4952095;28;19922;-68
2022/02/08 00:51:57;;;;;;;;;;;2.10;72.20;;;0.33;76.48;97339.03;4938975;29;19922;-68
2022/02/08 00:54:22;;;;;;;;;;;2.10;72.20;;;0.29;77.30;97342.75;4923023;28;19914;-69
2022/02/08 00:56:48;;;;;;;;;;;1.90;72.80;;;0.26;77.17;97350.72;4951440;28;19922;-68
2022/02/08 00:59:14;;;;;;;;;;;2.00;72.60;;;0.23;76.28;97356.06;4951644;28;19981;-67
2022/02/08 01:01:40;;;;;;;;;;;1.90;72.40;;;0.17;76.65;97356.44;4951536;28;19915;-69
2022/02/08 01:04:06;;;;;;;;;;;1.80;72.60;;;0.16;77.39;97358.19;4934615;28;19926;-69
2022/02/08 01:06:32;;;;;;;;;;;1.90;72.40;;;0.15;77.27;97358.28;4950445;28;20647;-69
2022/02/08 01:09:10;;;;;;;;;;;1.90;72.40;;;0.11;76.68;97356.81;4950931;28;19927;-69
2022/02/08 01:11:36;;;;;;;;;;;1.80;72.50;;;0.07;76.56;97357.94;4951128;28;20361;-68
2022/02/08 01:14:02;;;;;;;;;;;1.80;72.40;;;0.06;76.44;97359.69;4950540;28;19969;-68
2022/02/08 01:16:29;;;;;;;;;;;1.70;72.40;;;-0.01;76.71;97354.03;4949032;28;20318;-68
2022/02/08 01:18:56;;;;;;;;;;;1.70;72.50;;;-0.05;76.57;97362.91;4934990;29;20338;-68
2022/02/08 01:21:23;;;;;;;;;;;1.60;72.80;;;-0.10;77.14;97364.94;4969124;28;19965;-68
2022/02/08 01:23:49;;;;;;;;;;;1.60;73.00;;;-0.13;77.06;97366.88;4948645;28;19946;-69
2022/02/08 01:26:16;;;;;;;;;;;1.60;72.90;;;-0.15;77.12;97366.16;4951873;28;19922;-69
2022/02/08 01:29:02;;;;;;;;;;;1.60;73.00;;;-0.17;77.14;97373.16;4950857;28;19922;-69
2022/02/08 01:31:28;;;;;;;;;;;1.60;72.90;;;-0.20;77.13;97381.13;4950857;28;20420;-70
2022/02/08 01:34:25;;;;;;;;;;;1.50;72.80;;;-0.21;77.42;97376.88;4934855;29;19997;-69
2022/02/08 01:37:05;;;;;;;;;;;1.60;73.00;;;-0.23;77.70;97370.94;4952045;28;19989;-69
2022/02/08 01:39:43;;;;;;;;;;;1.50;73.00;;;-0.31;77.63;97381.72;4966474;28;20482;-69
2022/02/08 01:42:31;;;;;;;;;;;1.40;73.40;;;-0.33;77.80;97374.06;4950477;28;19922;-69
2022/02/08 01:47:41;;;;;;;;;;;1.30;73.60;;;-0.43;77.91;97361.78;4965483;28;19922;-69
2022/02/08 01:50:11;;;;;;;;;;;1.30;73.80;;;-0.43;78.11;97374.72;4945699;28;19919;-69
2022/02/08 01:52:38;;;;;;;;;;;1.30;73.60;;;-0.48;78.34;97374.13;4951810;28;19930;-69
2022/02/08 01:55:04;;;;;;;;;;;1.30;73.90;;;-0.50;78.10;97370.81;4931463;29;19942;-68
2022/02/08 01:57:30;;;;;;;;;;;1.30;73.90;;;-0.49;78.41;97372.47;4933018;28;19926;-69
2022/02/08 01:59:56;;;;;;;;;;;1.30;73.90;;;-0.51;77.91;97369.97;4931220;28;19977;-70
2022/02/08 02:02:21;;;;;;;;;;;1.30;73.80;;;-0.48;78.26;97364.63;4965765;28;19948;-69
2022/02/08 02:04:50;;;;;;;;;;;1.30;73.80;;;-0.46;78.39;97369.69;4938592;28;19989;-69
2022/02/08 02:07:18;;;;;;;;;;;1.30;73.80;;;-0.45;78.42;97368.81;4949636;28;19919;-69
2022/02/08 02:09:45;;;;;;;;;;;1.40;73.80;;;-0.44;78.37;97368.72;4931085;28;19927;-69
2022/02/08 02:12:11;;;;;;;;;;;1.40;73.50;;;-0.45;77.28;97368.81;4949099;28;20016;-69
2022/02/08 02:14:38;;;;;;;;;;;1.40;73.50;;;-0.45;77.60;97373.97;4928135;29;19953;-69
2022/02/08 02:17:04;;;;;;;;;;;1.30;73.60;;;-0.49;78.16;97367.28;4951113;28;19951;-69
2022/02/08 02:19:30;;;;;;;;;;;1.30;73.80;;;-0.49;78.01;97356.97;4933839;28;19945;-69
2022/02/08 02:21:57;;;;;;;;;;;1.30;73.90;;;-0.46;78.41;97367.13;4952243;28;19918;-69
2022/02/08 02:24:23;;;;;;;;;;;1.40;74.00;;;-0.45;78.70;97368.81;4941524;28;19919;-69
2022/02/08 02:26:48;;;;;;;;;;;1.40;73.90;;;-0.46;78.36;97367.94;4938740;28;19978;-69
2022/02/08 02:29:15;;;;;;;;;;;1.40;73.90;;;-0.43;77.73;97372.13;4948629;28;19986;-68
2022/02/08 02:31:42;;;;;;;;;;;1.40;73.70;;;-0.41;78.31;97375.47;4946806;28;19957;-69
2022/02/08 02:34:07;;;;;;;;;;;1.50;73.70;;;-0.39;78.31;97384.78;4959073;23;19934;-66
2022/02/08 02:36:33;;;;;;;;;;;1.50;73.20;;;-0.36;78.01;97382.00;4945591;28;19937;-66
2022/02/08 02:38:59;;;;;;;;;;;1.60;73.00;;;-0.33;77.86;97381.81;4968614;28;19924;-66
2022/02/08 02:41:24;;;;;;;;;;;1.60;72.90;;;-0.30;77.65;97367.88;4970702;28;19925;-66
2022/02/08 02:43:50;;;;;;;;;;;1.60;72.70;;;-0.29;77.95;97369.53;4998876;28;19918;-66
2022/02/08 02:46:16;;;;;;;;;;;1.60;72.90;;;-0.26;78.32;97374.53;4983027;28;20313;-66
2022/02/08 02:48:42;;;;;;;;;;;1.70;72.80;;;-0.26;77.42;97366.78;4955464;28;19922;-66
2022/02/08 02:51:15;;;;;;;;;;;1.70;72.40;;;-0.26;77.52;97366.78;4973130;28;20242;-66
2022/02/08 02:53:41;;;;;;;;;;;1.70;72.40;;;-0.28;77.80;97368.63;4962136;28;19922;-65
2022/02/08 02:56:06;;;;;;;;;;;1.60;72.60;;;-0.27;77.11;97372.88;4970605;28;19918;-66
2022/02/08 02:58:35;;;;;;;;;;;1.60;72.50;;;-0.26;77.35;97364.19;4955559;28;19992;-66
2022/02/08 03:01:21;;;;;;;;;;;1.70;72.50;;;-0.24;77.13;97366.69;4978868;28;19983;-66
2022/02/08 03:17:55;;;;;;;;;;;1.70;72.70;;;-0.19;77.38;97391.38;4957756;28;20369;-66
2022/02/08 03:20:20;;;;;;;;;;;1.70;72.50;;;-0.17;77.46;97376.59;4973132;28;19940;-66
2022/02/08 03:22:45;;;;;;;;;;;1.70;72.30;;;-0.15;77.20;97376.50;4950558;28;19962;-66
2022/02/08 03:25:11;;;;;;;;;;;1.80;72.10;;;-0.12;77.32;97391.81;4963811;28;19922;-66
2022/02/08 03:27:37;;;;;;;;;;;1.80;71.90;;;-0.10;77.40;97393.41;4971681;28;20340;-66
2022/02/08 03:30:03;;;;;;;;;;;1.90;71.80;;;-0.09;76.76;97405.41;4964069;28;19918;-66
2022/02/08 03:32:29;;;;;;;;;;;1.80;71.70;;;-0.07;76.97;97406.13;4970060;28;20000;-66
2022/02/08 03:34:55;;;;;;;;;;;1.90;71.50;;;-0.07;77.01;97400.13;4970794;28;19918;-66
2022/02/08 03:37:21;;;;;;;;;;;1.80;71.50;;;-0.06;76.98;97394.88;4973892;28;19933;-66
2022/02/08 03:39:57;;;;;;;;;;;1.80;71.80;;;-0.06;76.96;97394.88;4969405;28;20458;-66
2022/02/08 03:42:29;;;;;;;;;;;1.80;71.70;;;-0.05;76.97;97391.34;4975785;28;20283;-67
2022/02/08 03:44:57;;;;;;;;;;;1.90;71.80;;;-0.04;76.56;97390.44;4945136;28;19941;-66
2022/02/08 03:47:23;;;;;;;;;;;1.90;71.80;;;-0.02;76.75;97388.59;4987109;28;20012;-66
2022/02/08 03:49:49;;;;;;;;;;;1.90;71.80;;;0.01;76.54;97397.13;4983174;28;20029;-66
2022/02/08 03:52:15;;;;;;;;;;;2.00;71.70;;;0.05;76.78;97396.00;4970380;28;20361;-66
2022/02/08 03:54:41;;;;;;;;;;;2.00;71.40;;;0.07;76.68;97389.81;4986915;28;19918;-66
2022/02/08 03:57:09;;;;;;;;;;;2.10;71.30;;;0.10;76.69;97391.38;4971986;28;19918;-66
2022/02/08 03:59:34;;;;;;;;;;;2.00;70.90;;;0.14;77.08;97392.84;4975116;28;19918;-66
2022/02/08 04:02:18;;;;;;;;;;;2.10;71.10;;;0.17;76.09;97387.47;4968068;28;19925;-66
2022/02/08 04:07:16;;;;;;;;;;;2.10;70.70;;;0.24;76.68;97378.44;4956608;28;19993;-64
2022/02/08 04:09:42;;;;;;;;;;;2.20;70.80;;;0.30;76.36;97383.22;4966332;28;20380;-65
2022/02/08 04:12:16;;;;;;;;;;;2.20;70.30;;;0.34;75.48;97378.69;4957742;28;19933;-65
2022/02/08 04:14:50;;;;;;;;;;;2.30;70.00;;;0.36;76.05;97385.44;4971375;28;20393;-65
2022/02/08 04:17:40;;;;;;;;;;;2.30;69.80;;;0.41;75.30;97379.97;4975528;28;19929;-65
2022/02/08 04:36:31;;;;;;;;;;;2.40;68.90;;;0.61;74.36;97390.75;4961055;28;19918;-73
2022/02/08 04:41:32;;;;;;;;;;;2.40;69.20;;;0.67;74.66;97393.88;4971007;28;19949;-68
2022/02/08 04:44:14;;;;;;;;;;;2.60;69.10;;;0.69;74.59;97392.06;4951928;28;19920;-66
2022/02/08 04:46:53;;;;;;;;;;;2.60;68.90;;;0.70;74.09;97386.78;4979573;28;19922;-66
2022/02/08 04:49:19;;;;;;;;;;;2.50;68.70;;;0.71;73.94;97397.97;4969425;28;20008;-66
2022/02/08 04:51:50;;;;;;;;;;;2.50;68.60;;;0.70;74.39;97385.94;4971243;28;20285;-66
2022/02/08 04:54:26;;;;;;;;;;;2.50;69.00;;;0.72;74.67;97394.44;4955586;28;19925;-66
2022/02/08 04:57:42;;;;;;;;;;;2.60;69.10;;;0.70;75.02;97381.59;4955816;28;19922;-66
2022/02/08 05:45:03;;;;;;;;;;;2.70;67.60;;;0.96;72.86;97377.34;4973411;28;20382;-70
2022/02/08 05:47:29;;;;;;;;;;;2.70;67.70;;;0.98;73.21;97369.47;4947112;28;20313;-68
2022/02/08 05:50:08;;;;;;;;;;;2.80;67.50;;;0.99;73.54;97377.16;4969740;28;19928;-72
2022/02/08 05:52:47;;;;;;;;;;;2.80;67.70;;;1.00;73.44;97378.81;4968997;28;19922;-74
2022/02/08 05:55:14;;;;;;;;;;;2.70;67.90;;;1.00;73.10;97373.63;4954153;28;19973;-66
2022/02/08 05:57:39;;;;;;;;;;;2.80;67.90;;;1.03;73.86;97370.81;4965109;28;19924;-67
2022/02/08 06:00:06;;;;;;;;;;;2.80;67.80;;;1.06;73.95;97372.38;4960285;28;19918;-67
2022/02/08 06:02:31;;;;;;;;;;;2.80;67.80;;;1.06;73.53;97378.41;4984376;28;20187;-70
2022/02/08 06:04:57;;;;;;;;;;;2.80;68.00;;;1.06;73.41;97378.41;4984402;28;19918;-70
2022/02/08 06:07:24;;;;;;;;;;;2.80;67.90;;;1.07;73.26;97382.66;4969275;28;19932;-70
2022/02/08 06:09:53;;;;;;;;;;;2.80;68.00;;;1.09;72.83;97382.56;4968860;28;19922;-71
2022/02/08 06:12:22;;;;;;;;;;;2.90;68.00;;;1.08;73.44;97392.09;4983496;28;19932;-69
2022/02/08 06:14:56;;;;;;;;;;;2.80;67.80;;;1.09;73.13;97385.97;4967546;28;19922;-68
2022/02/08 06:17:21;;;;;;;;;;;2.80;67.80;;;1.09;72.70;97383.38;4971679;28;20024;-70
2022/02/08 06:19:47;;;;;;;;;;;2.90;67.70;;;1.11;73.29;97386.69;4963903;28;20362;-68
2022/02/08 06:22:14;;;;;;;;;;;2.90;67.80;;;1.14;74.36;97383.94;4981885;28;19932;-67
2022/02/08 06:24:39;;;;;;;;;;;3.00;68.50;;;1.15;72.77;97383.00;4969580;28;19918;-67
2022/02/08 06:27:05;;;;;;;;;;;2.90;67.10;;;1.16;72.78;97374.31;4971324;28;19921;-69
2022/02/08 06:29:31;;;;;;;;;;;2.90;67.50;;;1.19;73.23;97379.28;4970707;28;20438;-68
2022/02/08 06:31:57;;;;;;;;;;;3.00;67.90;;;1.19;72.76;97384.47;4973092;28;19918;-68
2022/02/08 06:34:25;;;;;;;;;;;3.00;67.70;;;1.19;72.58;97389.66;4955430;28;20041;-66
2022/02/08 06:36:59;;;;;;;;;;;2.90;67.40;;;1.21;73.01;97390.38;4955592;28;19918;-68
2022/02/08 06:39:31;;;;;;;;;;;3.00;67.40;;;1.21;72.96;97390.38;4955030;28;19924;-68
2022/02/08 06:41:57;;;;;;;;;;;3.00;66.80;;;1.23;72.80;97391.09;4971146;28;19918;-67
2022/02/08 06:44:23;;;;;;;;;;;3.00;67.30;;;1.25;72.58;97403.13;4973267;28;19931;-66
2022/02/08 06:46:48;;;;;;;;;;;3.10;67.00;;;1.26;72.63;97404.78;4957865;28;19924;-69
2022/02/08 06:49:14;;;;;;;;;;;3.10;66.70;;;1.28;72.60;97400.34;4971132;28;19921;-67
2022/02/08 06:51:40;;;;;;;;;;;3.10;66.60;;;1.29;72.56;97412.38;4969789;28;20473;-66
2022/02/08 06:54:05;;;;;;;;;;;3.10;66.60;;;1.28;72.04;97403.75;4968502;28;19977;-67
2022/02/08 06:56:32;;;;;;;;;;;3.10;66.60;;;1.32;72.15;97414.75;4949823;28;19918;-69
2022/02/08 06:59:04;;;;;;;;;;;3.10;66.10;;;1.33;71.83;97400.88;4974067;28;20026;-68
2022/02/08 07:01:33;;;;;;;;;;;3.10;66.20;;;1.35;72.00;97396.41;4969096;28;19957;-67
2022/02/08 07:04:04;;;;;;;;;;;3.20;66.00;;;1.38;72.05;97393.66;4978188;28;19917;-65
2022/02/08 07:06:30;;;;;;;;;;;3.30;65.60;;;1.39;72.18;97398.72;4976630;28;19957;-69
2022/02/08 07:08:55;;;;;;;;;;;3.30;65.70;;;1.43;71.98;97394.16;4959403;28;19914;-68
2022/02/08 07:11:21;;;;;;;;;;;3.30;65.50;;;1.46;72.25;97397.38;4961301;28;20012;-67
2022/02/08 07:13:48;;;;;;;;;;;3.20;65.50;;;1.46;71.43;97402.56;4986982;28;19936;-67
2022/02/08 07:16:14;;;;;;;;;;;3.30;65.20;;;1.49;71.34;97397.19;4944738;29;19953;-68
2022/02/08 07:18:40;;;;;;;;;;;3.40;65.40;;;1.51;71.63;97413.47;4964591;28;19980;-68
2022/02/08 07:21:06;;;;;;;;;;;3.30;65.20;;;1.54;71.78;97415.03;4971513;28;19918;-69
2022/02/08 07:23:32;;;;;;;;;;;3.50;65.40;;;1.59;71.25;97417.34;4985767;28;19984;-66
2022/02/08 07:25:57;;;;;;;;;;;3.40;65.10;;;1.60;71.22;97419.81;4972593;28;19918;-68
2022/02/08 07:28:23;;;;;;;;;;;3.50;64.80;;;1.62;71.21;97412.78;4969894;28;19926;-62
2022/02/08 07:30:49;;;;;;;;;;;3.40;64.90;;;1.65;70.81;97415.16;4978452;28;20354;-68
2022/02/08 07:33:15;;;;;;;;;;;3.50;64.90;;;1.69;71.83;97414.00;4972153;28;20936;-69
2022/02/08 07:35:51;;;;;;;;;;;3.60;65.00;;;1.72;70.83;97406.03;4983016;28;19922;-67
2022/02/08 07:38:28;;;;;;;;;;;3.60;64.60;;;1.76;71.01;97404.06;4970252;28;20342;-66
2022/02/08 07:43:20;;;;;;;;;;;3.70;64.10;;;1.82;70.51;97409.69;4970795;28;19963;-69
2022/02/08 07:45:46;;;;;;;;;;;3.60;64.00;;;1.86;70.79;97404.28;4951292;28;20009;-68
2022/02/08 07:48:11;;;;;;;;;;;3.80;64.10;;;1.90;70.96;97406.56;4950973;28;19940;-69
2022/02/08 07:50:41;;;;;;;;;;;3.80;64.20;;;1.95;70.72;97417.47;4961462;28;19930;-66
2022/02/08 07:53:13;;;;;;;;;;;3.90;63.50;;;2.01;70.12;97411.03;4986428;28;19926;-66
2022/02/08 07:55:39;;;;;;;;;;;4.00;63.20;;;2.05;69.86;97404.72;4967089;28;19926;-68
2022/02/08 07:58:05;;;;;;;;;;;4.10;62.70;;;2.09;69.74;97408.75;4961927;28;20069;-68
2022/02/08 08:00:30;;;;;;;;;;;4.10;62.60;;;2.13;69.80;97408.44;4968685;28;19922;-68
2022/02/08 08:02:56;;;;;;;;;;;4.10;62.50;;;2.17;68.81;97413.41;4970962;28;20334;-66
2022/02/08 08:05:22;;;;;;;;;;;4.10;62.00;;;2.19;69.35;97403.75;4969685;28;19985;-66
2022/02/08 08:07:47;;;;;;;;;;;4.10;62.10;;;2.24;68.78;97410.28;4970571;28;19918;-65
2022/02/08 08:10:18;;;;;;;;;;;4.20;61.50;;;2.29;67.89;97413.41;4968183;28;20623;-65
2022/02/08 08:12:48;;;;;;;;;;;4.30;60.70;;;2.33;68.83;97420.06;4967361;28;20450;-68
2022/02/08 08:15:32;;;;;;;;;;;4.30;61.20;;;2.39;68.83;97422.22;4955516;28;19926;-68
2022/02/08 08:18:02;;;;;;;;;;;4.40;61.30;;;2.45;68.28;97416.59;4971927;28;19928;-64
2022/02/08 08:20:28;;;;;;;;;;;4.40;60.20;;;2.49;67.82;97422.44;4975867;28;19926;-65
2022/02/08 08:22:53;;;;;;;;;;;4.50;60.20;;;2.51;67.56;97430.13;4958779;28;19918;-69
2022/02/08 08:25:19;;;;;;;;;;;4.40;59.70;;;2.53;67.59;97420.44;4974501;28;20355;-67
2022/02/08 08:27:45;;;;;;;;;;;4.50;60.20;;;2.54;67.21;97420.34;4940598;28;19925;-71
2022/02/08 08:30:11;;;;;;;;;;;4.40;59.80;;;2.60;67.33;97419.91;4956157;28;19945;-70
2022/02/08 08:32:39;;;;;;;;;;;4.70;59.30;;;2.69;67.47;97414.03;4988249;28;19922;-68
2022/02/08 08:35:07;;;;;;;;;;;4.80;58.30;;;2.80;67.19;97413.31;4975287;28;19918;-67
2022/02/08 08:37:37;;;;;;;;;;;5.10;58.80;;;2.91;66.80;97404.72;4962965;28;19932;-72
2022/02/08 08:40:13;;;;;;;;;;;5.20;57.90;;;3.00;66.72;97404.94;4965319;28;19949;-69
2022/02/08 08:42:51;;;;;;;;;;;5.30;57.40;;;3.10;66.63;97410.28;4958592;28;19945;-71
2022/02/08 08:50:59;;;;;;;;;;;5.00;57.40;;;3.16;65.09;97398.59;4960411;28;19924;-69
2022/02/08 08:53:25;;;;;;;;;;;5.00;57.00;;;3.18;64.99;97407.97;4971870;28;20285;-69
2022/02/08 08:55:51;;;;;;;;;;;5.10;57.20;;;3.20;64.98;97395.69;4975249;28;20348;-68
2022/02/08 08:58:17;;;;;;;;;;;5.20;56.50;;;3.31;64.68;97410.50;4957394;28;19922;-70
2022/02/08 09:00:43;;;;;;;;;;;5.50;55.70;;;3.38;64.46;97406.50;4969090;28;20333;-71
2022/02/08 09:03:08;;;;;;;;;;;5.50;55.10;;;3.47;64.39;97405.00;4956375;28;20325;-69
2022/02/08 09:05:34;;;;;;;;;;;5.60;55.00;;;3.51;63.37;97396.03;4968904;28;19922;-70
2022/02/08 09:08:00;;;;;;;;;;;5.60;54.80;;;3.56;63.16;97392.16;4972030;28;19917;-70
2022/02/08 09:10:33;;;;;;;;;;;5.60;54.80;;;3.63;63.66;97402.94;4973284;28;19924;-62
2022/02/08 09:15:52;;;;;;;;;;;6.10;54.20;;;3.90;62.91;97389.63;4944406;28;19925;-67
2022/02/08 09:29:19;;;;;;;;;;;8.20;49.00;;;5.04;60.92;97380.69;4998743;28;19917;-65
2022/02/08 09:31:45;;;;;;;;;;;8.40;47.90;;;5.19;62.02;97378.59;4985932;28;20012;-68
2022/02/08 09:34:10;;;;;;;;;;;8.10;45.80;;;5.30;59.05;97383.78;4981533;28;19926;-66
2022/02/08 09:36:36;;;;;;;;;;;8.20;46.30;;;5.44;60.08;97391.34;4961339;28;19918;-68
2022/02/08 09:39:02;;;;;;;;;;;8.40;45.40;;;5.51;58.49;97376.00;4967948;28;20361;-68
2022/02/08 09:41:31;;;;;;;;;;;8.10;46.20;;;5.53;59.31;97385.34;4966702;28;20053;-66
2022/02/08 09:43:56;;;;;;;;;;;8.00;46.60;;;5.53;58.19;97390.56;4950889;28;20299;-67
2022/02/08 09:46:22;;;;;;;;;;;8.10;46.10;;;5.51;57.89;97386.44;4971805;28;19929;-68
2022/02/08 09:48:56;;;;;;;;;;;8.20;45.60;;;5.69;59.52;97384.94;4958987;28;19917;-68
2022/02/08 09:51:23;;;;;;;;;;;10.70;40.80;;;6.14;56.56;97390.72;4969287;28;20049;-66
2022/02/08 09:53:49;;;;;;;;;;;11.40;38.10;;;6.71;57.25;97389.31;4969587;28;19926;-68
2022/02/08 09:56:15;;;;;;;;;;;13.70;34.10;;;7.18;57.07;97392.16;4971916;28;19977;-65
2022/02/08 09:58:41;;;;;;;;;;;13.00;36.00;;;7.69;55.00;97383.19;4939848;28;19921;-66
2022/02/08 10:01:11;;;;;;;;;;;13.70;34.30;;;8.21;53.87;97376.63;4955483;28;19925;-68
2022/02/08 10:03:54;;;;;;;;;;;15.30;31.90;;;8.59;51.03;97378.28;4933508;28;19965;-68
2022/02/08 10:06:20;;;;;;;;;;;13.20;33.80;;;8.79;53.27;97396.56;4953788;28;20352;-68
2022/02/08 10:08:56;;;;;;;;;;;12.70;35.30;;;8.79;54.50;97375.56;4939487;28;20017;-67
2022/02/08 10:11:27;;;;;;;;;;;12.00;36.60;;;8.79;52.07;97375.56;4941366;28;20546;-66
2022/02/08 10:14:16;;;;;;;;;;;12.00;37.40;;;8.78;52.87;97373.94;4955479;28;20696;-67
2022/02/08 10:22:34;;;;;;;;;;;12.60;36.60;;;9.13;54.14;97371.38;4979694;28;20415;-68
2022/02/08 10:25:01;;;;;;;;;;;13.80;34.80;;;9.27;51.81;97348.19;4954699;28;20345;-67
2022/02/08 10:30:12;;;;;;;;;;;15.40;31.10;;;9.69;54.74;97349.22;4970174;28;19918;-63
2022/02/08 10:38:15;;;;;;;;;;;11.20;39.40;;;9.01;52.79;97343.69;4967774;28;20339;-67
2022/02/08 10:40:42;;;;;;;;;;;11.10;39.70;;;9.23;53.69;97339.78;4955685;28;19922;-69
2022/02/08 10:43:09;;;;;;;;;;;15.00;34.30;;;9.79;51.10;97334.19;4973672;28;19918;-69
2022/02/08 10:45:39;;;;;;;;;;;16.50;30.10;;;10.18;50.81;97332.94;4970542;28;19925;-69
2022/02/08 10:48:14;;;;;;;;;;;15.50;30.90;;;10.27;49.12;97332.03;4957760;28;19972;-68
2022/02/08 10:50:44;;;;;;;;;;;15.10;32.30;;;10.51;50.97;97329.53;4974304;28;19928;-68
2022/02/08 10:53:12;;;;;;;;;;;16.10;30.80;;;10.66;49.13;97327.94;4953652;28;19984;-68
2022/02/08 10:58:41;;;;;;;;;;;18.20;27.80;;;11.82;49.26;97304.22;4989752;28;20052;-68
2022/02/08 11:01:12;;;;;;;;;;;20.00;26.30;;;12.08;48.67;97310.09;4942632;28;19919;-67
2022/02/08 11:03:56;;;;;;;;;;;16.90;29.50;;;12.19;48.88;97311.56;4987392;28;20028;-67
2022/02/08 11:06:35;;;;;;;;;;;16.80;30.00;;;12.19;50.32;97298.38;4999387;28;20068;-71
2022/02/08 11:12:22;;;;;;;;;;;15.40;31.80;;;11.79;46.91;97299.28;4969819;28;19966;-68
2022/02/08 11:15:06;;;;;;;;;;;14.80;31.90;;;11.63;44.68;97306.19;4973176;28;20004;-69
2022/02/08 11:25:15;;;;;;;;;;;17.90;26.60;;;12.19;45.64;97296.53;4955249;28;19977;-71
2022/02/08 11:27:47;;;;;;;;;;;19.10;24.60;;;12.67;45.82;97289.44;4959446;28;19952;-69
2022/02/08 11:30:19;;;;;;;;;;;20.60;23.70;;;13.33;44.94;97285.41;4979707;28;20655;-68
2022/02/08 11:57:38;;;;;;;;;;;15.60;28.60;;;12.91;41.22;97270.00;4969715;28;20333;-65
2022/02/08 11:59:49;;;;;;;;;;;14.70;29.80;;;12.49;42.90;97281.78;4978212;28;19925;-66
2022/02/08 12:07:49;;;;;;;;;;;14.40;32.70;;;12.29;43.72;97301.66;4964033;28;20246;-68
2022/02/08 12:30:25;;;;;;;;;;;15.10;26.80;;;12.57;40.90;97268.53;4982384;28;19984;-68
2022/02/08 12:53:54;;;;;;;;;;;22.40;18.00;;;17.62;36.15;97229.97;4976487;28;19994;-66
2022/02/08 12:56:33;;;;;;;;;;;22.10;18.60;;;17.94;34.91;97222.22;4957500;28;19926;-67
2022/02/08 14:19:53;;;;;;;;;;;21.60;20.20;;;19.61;32.43;97197.97;4974509;28;19917;-66
2022/02/08 14:22:35;;;;;;;;;;;19.70;22.40;;;18.35;35.12;97203.25;4968051;28;20094;-66
2022/02/08 14:30:29;;;;;;;;;;;16.60;27.00;;;15.42;36.95;97203.78;4964296;28;19977;-67
2022/02/08 14:33:25;;;;;;;;;;;16.30;27.90;;;14.84;36.84;97211.00;4965871;28;19930;-66
2022/02/08 15:10:54;;;;;;;;;;;17.50;28.10;;;15.57;36.97;97201.84;4986638;28;19922;-66
2022/02/08 15:13:23;;;;;;;;;;;16.30;29.40;;;14.78;38.56;97207.28;4971669;28;19937;-66
2022/02/08 15:18:34;;;;;;;;;;;14.70;30.80;;;13.59;37.86;97218.16;4931806;29;19926;-66
2022/02/08 15:21:00;;;;;;;;;;;14.10;31.40;;;13.08;38.78;97220.50;4961229;28;20407;-65
2022/02/08 15:23:26;;;;;;;;;;;13.70;32.60;;;12.71;39.05;97224.75;4965037;28;20305;-65
2022/02/08 15:25:55;;;;;;;;;;;14.00;32.10;;;12.51;39.25;97226.19;4968391;28;19922;-66
2022/02/08 15:28:23;;;;;;;;;;;13.80;32.90;;;12.26;41.08;97228.13;4953316;28;20005;-65
2022/02/08 15:30:49;;;;;;;;;;;13.50;33.70;;;11.98;40.82;97225.06;4970806;28;19918;-68
2022/02/08 15:33:15;;;;;;;;;;;13.10;34.70;;;11.70;40.53;97226.44;4974047;28;20399;-65
2022/02/08 15:35:41;;;;;;;;;;;12.80;34.20;;;11.43;40.31;97231.09;4968919;28;19925;-66
2022/02/08 15:38:06;;;;;;;;;;;12.60;34.90;;;11.12;40.49;97230.97;4948597;28;19918;-67
2022/02/08 15:40:35;;;;;;;;;;;12.00;35.60;;;10.78;41.19;97227.63;4969315;28;19966;-67
2022/02/08 15:43:01;;;;;;;;;;;11.60;36.20;;;10.54;41.36;97233.66;4955653;28;20293;-67
2022/02/08 15:45:35;;;;;;;;;;;11.50;36.60;;;10.35;41.40;97230.31;4968529;28;19986;-67
2022/02/08 15:48:00;;;;;;;;;;;11.50;37.00;;;10.12;41.59;97234.47;4956880;28;19922;-68
2022/02/08 15:50:53;;;;;;;;;;;11.10;37.10;;;9.91;42.68;97231.41;4967825;28;20351;-66
2022/02/08 15:56:24;;;;;;;;;;;10.80;38.40;;;9.48;42.57;97231.34;4964158;28;19929;-66
2022/02/08 16:07:01;;;;;;;;;;;10.10;40.20;;;8.88;44.63;97248.75;4979559;28;20379;-66
2022/02/08 16:09:34;;;;;;;;;;;9.90;40.60;;;8.74;44.54;97251.91;4981495;28;20373;-67
2022/02/08 16:18:31;;;;;;;;;;;9.80;41.40;;;8.41;44.66;97246.31;4971411;28;20008;-68
2022/02/08 16:20:55;;;;;;;;;;;9.60;42.00;;;8.33;45.68;97251.44;4979463;28;19921;-65
2022/02/08 16:23:38;;;;;;;;;;;9.60;42.30;;;8.25;45.64;97251.34;4947551;28;20387;-66
2022/02/08 16:29:18;;;;;;;;;;;9.40;43.00;;;8.09;46.49;97251.13;4980123;28;19976;-67
2022/02/08 16:58:26;;;;;;;;;;;9.00;44.30;;;7.56;47.41;97277.94;4959818;28;20001;-66
2022/02/08 17:00:55;;;;;;;;;;;8.90;44.20;;;7.46;47.21;97269.25;4953756;28;19929;-66
2022/02/08 17:03:26;;;;;;;;;;;8.80;44.90;;;7.42;48.03;97278.38;4949746;28;20611;-66
2022/02/08 17:05:52;;;;;;;;;;;8.80;45.30;;;7.37;47.96;97279.63;4966115;28;20008;-66
2022/02/08 17:08:18;;;;;;;;;;;8.80;45.20;;;7.31;48.27;97288.03;4987246;28;19921;-66
2022/02/08 17:10:48;;;;;;;;;;;8.70;45.50;;;7.28;48.59;97280.47;4984646;28;20360;-66
2022/02/08 17:16:34;;;;;;;;;;;8.70;46.10;;;7.22;49.24;97291.47;4977980;28;19918;-66
2022/02/08 17:18:57;;;;;;;;;;;8.70;46.20;;;7.19;49.29;97291.75;4971634;28;19925;-67
2022/02/08 17:36:05;;;;;;;;;;;8.50;48.10;;;6.88;50.47;97290.25;4992803;28;20345;-67
2022/02/08 17:46:32;;;;;;;;;;;8.10;49.20;;;6.58;51.04;97292.00;4972405;28;20358;-66
2022/02/08 17:48:42;;;;;;;;;;;8.10;49.20;;;6.51;51.86;97287.41;4973301;28;19975;-67
2022/02/08 17:51:08;;;;;;;;;;;8.10;49.30;;;6.44;51.98;97287.13;4972267;28;19918;-67
2022/02/08 17:53:34;;;;;;;;;;;8.00;50.00;;;6.42;52.05;97294.28;4956449;28;19921;-64
2022/02/08 17:55:59;;;;;;;;;;;8.00;50.20;;;6.36;51.62;97294.84;4970913;28;19925;-64
2022/02/08 17:58:25;;;;;;;;;;;7.80;50.10;;;6.28;51.91;97297.25;4961274;28;19928;-64
2022/02/08 18:00:51;;;;;;;;;;;7.70;50.60;;;6.18;52.55;97296.41;4985755;28;20443;-64
2022/02/08 18:03:16;;;;;;;;;;;7.60;50.90;;;6.08;52.86;97297.19;4987207;28;19921;-64
2022/02/08 18:05:44;;;;;;;;;;;7.50;51.30;;;6.03;52.87;97309.81;4957402;28;20490;-64
2022/02/08 18:08:13;;;;;;;;;;;7.50;51.40;;;5.96;52.33;97308.69;4949083;28;20381;-67
2022/02/08 18:10:48;;;;;;;;;;;7.30;51.50;;;5.89;52.60;97301.50;4957324;28;20005;-72
2022/02/08 18:13:17;;;;;;;;;;;7.20;51.20;;;5.82;52.38;97311.59;4957691;28;19926;-68
2022/02/08 18:15:42;;;;;;;;;;;7.20;51.20;;;5.77;52.84;97313.78;4950733;28;19918;-71
2022/02/08 18:18:20;;;;;;;;;;;7.30;51.40;;;5.72;52.94;97310.75;4967334;28;19950;-70
2022/02/08 18:20:53;;;;;;;;;;;7.20;51.20;;;5.70;52.27;97310.06;4954641;28;19924;-71